createdAt,value
2016-11-06T00:00:12.693Z,55.70
2016-11-06T00:01:12.585Z,55.20
2016-11-06T00:02:13.902Z,55.20
2016-11-06T00:03:13.640Z,55.20
2016-11-06T00:04:13.054Z,55.30
2016-11-06T00:05:12.240Z,55.20
2016-11-06T00:06:13.057Z,55.70
2016-11-06T00:07:12.684Z,55.20
2016-11-06T00:08:12.311Z,55.20
2016-11-06T00:09:13.341Z,55.20
2016-11-06T00:10:13.299Z,55.30
2016-11-06T00:11:13.714Z,55.40
2016-11-06T00:12:13.201Z,55.30
2016-11-06T00:13:13.431Z,55.30
2016-11-06T00:14:12.123Z,55.20
2016-11-06T00:15:12.386Z,55.30
2016-11-06T00:16:12.700Z,55.30
2016-11-06T00:17:13.254Z,55.80
2016-11-06T00:18:13.394Z,55.30
2016-11-06T00:19:12.028Z,55.30
2016-11-06T00:20:12.356Z,55.30
2016-11-06T00:21:12.380Z,55.30
2016-11-06T00:22:12.060Z,55.40
2016-11-06T00:23:14.010Z,55.30
2016-11-06T00:24:13.399Z,55.40
2016-11-06T00:25:13.400Z,55.40
2016-11-06T00:26:13.658Z,55.40
2016-11-06T00:27:13.140Z,55.30
2016-11-06T00:28:14.693Z,55.50
2016-11-06T00:29:11.917Z,55.40
2016-11-06T00:30:12.059Z,55.40
2016-11-06T00:31:13.120Z,55.40
2016-11-06T00:32:10.817Z,is
2016-11-06T00:33:12.363Z,55.40
2016-11-06T00:34:12.207Z,55.40
2016-11-06T00:35:14.349Z,55.40
2016-11-06T00:36:12.326Z,55.50
2016-11-06T00:37:14.027Z,55.50
2016-11-06T00:38:13.679Z,55.50
2016-11-06T00:39:10.370Z,is
2016-11-06T00:40:11.752Z,55.40
2016-11-06T00:41:13.295Z,55.60
2016-11-06T00:42:12.875Z,55.50
2016-11-06T00:43:12.681Z,55.50
2016-11-06T00:44:12.484Z,55.50
2016-11-06T00:45:12.794Z,55.70
2016-11-06T00:46:14.110Z,55.70
2016-11-06T00:47:18.179Z,55.50
2016-11-06T00:48:12.752Z,55.60
2016-11-06T00:49:13.536Z,55.70
2016-11-06T00:50:12.325Z,55.60
2016-11-06T00:51:13.951Z,55.60
2016-11-06T00:52:14.535Z,55.60
2016-11-06T00:53:18.520Z,55.60
2016-11-06T00:54:12.487Z,55.60
2016-11-06T00:55:15.113Z,55.70
2016-11-06T00:56:12.743Z,55.60
2016-11-06T00:57:10.644Z,is
2016-11-06T00:58:18.199Z,55.70
2016-11-06T00:59:12.334Z,55.60
2016-11-06T01:00:13.079Z,55.70
2016-11-06T01:01:19.983Z,55.60
2016-11-06T01:02:12.314Z,55.70
2016-11-06T01:03:12.899Z,55.60
2016-11-06T01:04:09.608Z,is
2016-11-06T01:05:12.957Z,55.60
2016-11-06T01:06:13.012Z,55.80
2016-11-06T01:07:12.917Z,55.70
2016-11-06T01:08:12.155Z,55.70
2016-11-06T01:09:14.579Z,55.60
2016-11-06T01:10:13.490Z,55.70
2016-11-06T01:11:13.490Z,55.70
2016-11-06T01:12:13.145Z,55.60
2016-11-06T01:13:12.668Z,55.70
2016-11-06T01:14:12.549Z,55.70
2016-11-06T01:15:12.292Z,55.70
2016-11-06T01:16:14.529Z,55.70
2016-11-06T01:17:12.994Z,55.70
2016-11-06T01:18:13.197Z,55.70
2016-11-06T01:19:13.556Z,55.70
2016-11-06T01:20:12.223Z,55.70
2016-11-06T01:21:12.871Z,55.70
2016-11-06T01:22:14.702Z,55.70
2016-11-06T01:23:12.520Z,55.70
2016-11-06T01:24:12.376Z,55.80
2016-11-06T01:25:10.446Z,is
2016-11-06T01:26:10.754Z,is
2016-11-06T01:27:14.622Z,55.70
2016-11-06T01:28:11.920Z,55.70
2016-11-06T01:29:12.859Z,55.80
2016-11-06T01:30:13.353Z,55.80
2016-11-06T01:31:11.620Z,55.80
2016-11-06T01:32:15.133Z,55.80
2016-11-06T01:33:12.955Z,55.70
2016-11-06T01:34:12.006Z,55.70
2016-11-06T01:35:12.993Z,55.70
2016-11-06T01:36:12.537Z,55.90
2016-11-06T01:37:11.902Z,is
2016-11-06T01:38:10.714Z,is
2016-11-06T01:39:12.011Z,55.90
2016-11-06T01:40:13.522Z,55.90
2016-11-06T01:41:12.943Z,55.90
2016-11-06T01:42:13.177Z,56.00
2016-11-06T01:43:13.212Z,56.50
2016-11-06T01:44:11.099Z,is
2016-11-06T01:45:10.754Z,is
2016-11-06T01:46:13.139Z,56.10
2016-11-06T01:47:10.011Z,is
2016-11-06T01:48:13.351Z,56.20
2016-11-06T01:49:18.634Z,56.00
2016-11-06T01:50:13.261Z,56.20
2016-11-06T01:51:12.564Z,56.10
2016-11-06T01:52:13.211Z,56.10
2016-11-06T01:53:12.960Z,56.10
2016-11-06T01:54:12.251Z,56.10
2016-11-06T01:55:14.616Z,56.10
2016-11-06T01:56:12.368Z,56.10
2016-11-06T01:57:12.546Z,56.20
2016-11-06T01:58:19.055Z,56.20
2016-11-06T01:59:10.621Z,is
2016-11-06T02:00:13.423Z,56.10
2016-11-06T02:01:12.832Z,56.20
2016-11-06T02:02:12.548Z,56.10
2016-11-06T02:03:18.535Z,56.20
2016-11-06T02:04:12.154Z,56.10
2016-11-06T02:05:12.994Z,56.20
2016-11-06T02:06:12.630Z,56.20
2016-11-06T02:07:10.622Z,is
2016-11-06T02:08:13.143Z,56.20
2016-11-06T02:09:12.665Z,56.20
2016-11-06T02:10:12.879Z,56.20
2016-11-06T02:11:12.803Z,56.30
2016-11-06T02:12:12.393Z,56.20
2016-11-06T02:13:14.136Z,56.20
2016-11-06T02:14:11.712Z,56.20
2016-11-06T02:15:12.829Z,56.30
2016-11-06T02:16:12.789Z,56.20
2016-11-06T02:17:13.319Z,56.20
2016-11-06T02:18:11.715Z,56.20
2016-11-06T02:19:11.852Z,56.20
2016-11-06T02:20:12.513Z,56.10
2016-11-06T02:21:12.963Z,56.20
2016-11-06T02:22:10.025Z,is
2016-11-06T02:23:13.031Z,56.20
2016-11-06T02:24:13.562Z,56.30
2016-11-06T02:25:13.532Z,56.20
2016-11-06T02:26:11.757Z,56.20
2016-11-06T02:27:13.455Z,56.30
2016-11-06T02:28:11.590Z,56.20
2016-11-06T02:29:12.193Z,56.20
2016-11-06T02:30:13.205Z,56.20
2016-11-06T02:31:13.145Z,56.30
2016-11-06T02:32:14.260Z,56.10
2016-11-06T02:33:15.077Z,56.20
2016-11-06T02:34:13.807Z,56.20
2016-11-06T02:35:13.942Z,56.30
2016-11-06T02:36:12.519Z,56.20
2016-11-06T02:37:14.101Z,56.30
2016-11-06T02:38:13.277Z,56.20
2016-11-06T02:39:12.939Z,56.30
2016-11-06T02:40:13.633Z,56.20
2016-11-06T02:41:12.719Z,56.20
2016-11-06T02:42:13.351Z,56.30
2016-11-06T02:43:12.188Z,56.30
2016-11-06T02:44:15.073Z,56.20
2016-11-06T02:45:13.041Z,56.30
2016-11-06T02:46:12.222Z,56.30
2016-11-06T02:47:13.388Z,56.30
2016-11-06T02:48:11.792Z,56.30
2016-11-06T02:49:13.041Z,56.40
2016-11-06T02:50:10.830Z,is
2016-11-06T02:51:12.717Z,56.40
2016-11-06T02:52:11.833Z,56.30
2016-11-06T02:53:13.711Z,56.30
2016-11-06T02:54:11.709Z,56.30
2016-11-06T02:55:14.427Z,55.60
2016-11-06T02:56:12.614Z,56.30
2016-11-06T02:57:12.517Z,56.60
2016-11-06T02:58:13.660Z,56.40
2016-11-06T02:59:13.392Z,56.40
2016-11-06T03:00:11.585Z,56.30
2016-11-06T03:01:10.843Z,is
2016-11-06T03:02:11.422Z,56.30
2016-11-06T03:03:11.429Z,56.30
2016-11-06T03:04:11.849Z,56.30
2016-11-06T03:05:12.079Z,56.40
2016-11-06T03:06:12.112Z,56.40
2016-11-06T03:07:13.116Z,56.40
2016-11-06T03:08:13.055Z,56.40
2016-11-06T03:09:17.468Z,56.40
2016-11-06T03:10:12.057Z,56.40
2016-11-06T03:11:12.690Z,56.50
2016-11-06T03:12:14.219Z,56.50
2016-11-06T03:13:13.487Z,56.90
2016-11-06T03:14:13.264Z,56.40
2016-11-06T03:15:12.418Z,56.40
2016-11-06T03:16:10.266Z,is
2016-11-06T03:17:12.425Z,56.40
2016-11-06T03:18:13.122Z,56.50
2016-11-06T03:19:13.304Z,56.50
2016-11-06T03:20:17.989Z,56.50
2016-11-06T03:21:12.580Z,56.70
2016-11-06T03:22:18.587Z,56.50
2016-11-06T03:23:13.269Z,56.60
2016-11-06T03:24:13.313Z,56.60
2016-11-06T03:25:10.829Z,is
2016-11-06T03:26:13.878Z,56.60
2016-11-06T03:27:13.233Z,56.50
2016-11-06T03:28:13.128Z,56.60
2016-11-06T03:29:12.794Z,56.60
2016-11-06T03:30:13.559Z,56.60
2016-11-06T03:31:12.290Z,56.60
2016-11-06T03:32:13.022Z,56.60
2016-11-06T03:33:12.636Z,56.60
2016-11-06T03:34:10.643Z,is
2016-11-06T03:35:11.980Z,56.50
2016-11-06T03:36:11.911Z,56.60
2016-11-06T03:37:13.763Z,56.70
2016-11-06T03:38:09.623Z,is
2016-11-06T03:39:11.563Z,56.60
2016-11-06T03:40:12.121Z,56.70
2016-11-06T03:41:13.940Z,57.20
2016-11-06T03:42:12.115Z,56.60
2016-11-06T03:43:12.284Z,56.70
2016-11-06T03:44:18.095Z,56.70
2016-11-06T03:45:12.669Z,56.60
2016-11-06T03:46:12.821Z,56.70
2016-11-06T03:47:12.565Z,56.80
2016-11-06T03:48:12.407Z,56.80
2016-11-06T03:49:14.269Z,56.70
2016-11-06T03:50:15.361Z,56.80
2016-11-06T03:51:12.494Z,56.70
2016-11-06T03:52:12.149Z,56.70
2016-11-06T03:53:11.779Z,56.70
2016-11-06T03:54:12.123Z,56.70
2016-11-06T03:55:13.672Z,56.80
2016-11-06T03:56:11.790Z,56.80
2016-11-06T03:57:12.546Z,56.80
2016-11-06T03:58:11.515Z,56.80
2016-11-06T03:59:11.530Z,56.80
2016-11-06T04:00:12.353Z,56.90
2016-11-06T04:01:10.262Z,is
2016-11-06T04:02:12.464Z,56.90
2016-11-06T04:03:12.182Z,56.90
2016-11-06T04:04:12.608Z,56.80
2016-11-06T04:05:11.725Z,56.70
2016-11-06T04:06:12.540Z,56.90
2016-11-06T04:07:11.598Z,56.70
2016-11-06T04:08:11.599Z,56.80
2016-11-06T04:09:12.920Z,56.80
2016-11-06T04:10:12.635Z,57.00
2016-11-06T04:11:12.100Z,56.70
2016-11-06T04:12:13.088Z,56.70
2016-11-06T04:13:12.619Z,56.70
2016-11-06T04:14:10.009Z,is
2016-11-06T04:15:11.554Z,56.70
2016-11-06T04:16:11.679Z,56.80
2016-11-06T04:17:12.574Z,56.90
2016-11-06T04:18:12.370Z,56.70
2016-11-06T04:19:14.496Z,56.70
2016-11-06T04:20:11.922Z,56.80
2016-11-06T04:21:11.969Z,56.70
2016-11-06T04:22:11.960Z,56.80
2016-11-06T04:23:13.606Z,56.90
2016-11-06T04:24:12.866Z,56.90
2016-11-06T04:25:12.823Z,56.70
2016-11-06T04:26:11.936Z,56.70
2016-11-06T04:27:12.406Z,56.80
2016-11-06T04:28:12.199Z,56.80
2016-11-06T04:29:12.747Z,56.70
2016-11-06T04:30:11.911Z,56.90
2016-11-06T04:31:11.782Z,56.70
2016-11-06T04:32:12.434Z,56.90
2016-11-06T04:33:11.411Z,56.70
2016-11-06T04:34:12.430Z,57.10
2016-11-06T04:35:12.042Z,56.80
2016-11-06T04:36:12.954Z,56.70
2016-11-06T04:37:13.073Z,56.80
2016-11-06T04:38:15.271Z,56.80
2016-11-06T04:39:12.967Z,56.80
2016-11-06T04:40:12.632Z,56.80
2016-11-06T04:41:11.921Z,56.80
2016-11-06T04:42:14.804Z,56.90
2016-11-06T04:43:12.968Z,56.50
2016-11-06T04:44:12.485Z,56.70
2016-11-06T04:45:12.292Z,56.90
2016-11-06T04:46:12.842Z,56.90
2016-11-06T04:47:13.415Z,56.80
2016-11-06T04:48:13.685Z,56.80
2016-11-06T04:49:12.529Z,56.80
2016-11-06T04:50:13.285Z,56.80
2016-11-06T04:51:13.784Z,56.90
2016-11-06T04:52:11.735Z,56.70
2016-11-06T04:53:12.217Z,56.80
2016-11-06T04:54:12.660Z,56.70
2016-11-06T04:55:13.559Z,56.80
2016-11-06T04:56:13.074Z,56.80
2016-11-06T04:57:12.530Z,56.80
2016-11-06T04:58:12.124Z,56.70
2016-11-06T04:59:12.183Z,56.70
2016-11-06T05:00:12.902Z,56.90
2016-11-06T05:01:11.798Z,56.80
2016-11-06T05:02:13.697Z,56.80
2016-11-06T05:03:12.405Z,56.80
2016-11-06T05:04:11.873Z,56.70
2016-11-06T05:05:12.103Z,56.90
2016-11-06T05:06:12.111Z,56.70
2016-11-06T05:07:12.824Z,56.90
2016-11-06T05:08:12.472Z,56.80
2016-11-06T05:09:11.568Z,56.70
2016-11-06T05:10:12.753Z,56.80
2016-11-06T05:11:11.825Z,56.70
2016-11-06T05:12:14.757Z,57.10
2016-11-06T05:13:13.421Z,56.80
2016-11-06T05:14:12.158Z,56.80
2016-11-06T05:15:12.677Z,56.80
2016-11-06T05:16:11.731Z,56.70
2016-11-06T05:17:12.393Z,56.90
2016-11-06T05:18:12.133Z,56.80
2016-11-06T05:19:12.732Z,56.80
2016-11-06T05:20:13.380Z,56.90
2016-11-06T05:21:09.518Z,is
2016-11-06T05:22:11.655Z,56.70
2016-11-06T05:23:14.272Z,56.80
2016-11-06T05:24:13.051Z,56.90
2016-11-06T05:25:12.445Z,is
2016-11-06T05:26:13.303Z,is
2016-11-06T05:27:15.913Z,57.00
2016-11-06T05:28:11.900Z,56.70
2016-11-06T05:29:12.552Z,56.80
2016-11-06T05:30:12.159Z,56.70
2016-11-06T05:31:12.193Z,56.70
2016-11-06T05:32:17.743Z,56.70
2016-11-06T05:33:12.650Z,56.70
2016-11-06T05:34:11.727Z,56.70
2016-11-06T05:35:11.937Z,56.70
2016-11-06T05:36:09.427Z,is
2016-11-06T05:37:13.462Z,56.70
2016-11-06T05:38:11.618Z,56.70
2016-11-06T05:39:18.023Z,56.70
2016-11-06T05:40:12.685Z,56.70
2016-11-06T05:41:12.778Z,56.70
2016-11-06T05:42:12.830Z,56.80
2016-11-06T05:43:11.811Z,56.70
2016-11-06T05:44:13.152Z,56.80
2016-11-06T05:45:12.869Z,56.70
2016-11-06T05:46:12.013Z,56.70
2016-11-06T05:47:13.048Z,56.80
2016-11-06T05:48:13.295Z,56.90
2016-11-06T05:49:12.632Z,56.80
2016-11-06T05:50:12.249Z,56.70
2016-11-06T05:51:12.731Z,56.70
2016-11-06T05:52:12.198Z,56.90
2016-11-06T05:53:10.675Z,is
2016-11-06T05:54:12.733Z,56.90
2016-11-06T05:55:11.869Z,56.90
2016-11-06T05:56:12.493Z,56.90
2016-11-06T05:57:13.360Z,56.90
2016-11-06T05:58:13.012Z,56.90
2016-11-06T05:59:12.645Z,56.80
2016-11-06T06:00:12.389Z,56.80
2016-11-06T06:01:10.305Z,is
2016-11-06T06:02:12.162Z,56.90
2016-11-06T06:03:12.672Z,56.70
2016-11-06T06:04:13.611Z,56.90
2016-11-06T06:05:11.632Z,56.80
2016-11-06T06:06:11.638Z,56.70
2016-11-06T06:07:12.445Z,56.80
2016-11-06T06:08:12.285Z,57.00
2016-11-06T06:09:12.287Z,56.70
2016-11-06T06:10:12.851Z,56.80
2016-11-06T06:11:12.289Z,56.70
2016-11-06T06:12:13.796Z,56.80
2016-11-06T06:13:12.212Z,56.80
2016-11-06T06:14:14.002Z,56.90
2016-11-06T06:15:12.042Z,56.70
2016-11-06T06:16:12.644Z,56.90
2016-11-06T06:17:12.364Z,56.80
2016-11-06T06:18:12.106Z,56.70
2016-11-06T06:19:12.156Z,56.70
2016-11-06T06:20:13.045Z,56.80
2016-11-06T06:21:13.666Z,56.80
2016-11-06T06:22:11.713Z,56.70
2016-11-06T06:23:12.289Z,56.80
2016-11-06T06:24:12.274Z,56.70
2016-11-06T06:25:13.992Z,56.90
2016-11-06T06:26:09.935Z,is
2016-11-06T06:27:12.142Z,56.90
2016-11-06T06:28:12.106Z,56.90
2016-11-06T06:29:12.172Z,56.70
2016-11-06T06:30:12.759Z,56.70
2016-11-06T06:31:13.197Z,56.90
2016-11-06T06:32:11.039Z,is
2016-11-06T06:33:13.753Z,56.90
2016-11-06T06:34:12.397Z,56.70
2016-11-06T06:35:12.106Z,56.80
2016-11-06T06:36:13.225Z,56.70
2016-11-06T06:37:12.730Z,56.80
2016-11-06T06:38:10.386Z,is
2016-11-06T06:39:12.342Z,56.40
2016-11-06T06:40:12.746Z,56.70
2016-11-06T06:41:12.294Z,56.70
2016-11-06T06:42:13.086Z,56.80
2016-11-06T06:43:13.585Z,56.80
2016-11-06T06:44:17.742Z,56.80
2016-11-06T06:45:11.900Z,57.10
2016-11-06T06:46:12.692Z,56.80
2016-11-06T06:47:13.412Z,56.80
2016-11-06T06:48:11.967Z,56.70
2016-11-06T06:49:13.347Z,56.80
2016-11-06T06:50:11.921Z,56.80
2016-11-06T06:51:12.002Z,56.80
2016-11-06T06:52:12.859Z,56.70
2016-11-06T06:53:12.595Z,56.80
2016-11-06T06:54:11.749Z,56.80
2016-11-06T06:55:14.422Z,56.90
2016-11-06T06:56:12.595Z,56.70
2016-11-06T06:57:12.306Z,56.90
2016-11-06T06:58:13.220Z,56.80
2016-11-06T06:59:12.113Z,56.80
2016-11-06T07:00:12.090Z,56.80
2016-11-06T07:01:12.888Z,56.80
2016-11-06T07:02:10.775Z,is
2016-11-06T07:03:12.445Z,57.40
2016-11-06T07:04:09.452Z,is
2016-11-06T07:05:12.712Z,57.20
2016-11-06T07:06:12.286Z,57.50
2016-11-06T07:07:10.966Z,is
2016-11-06T07:08:13.949Z,57.40
2016-11-06T07:09:12.248Z,57.00
2016-11-06T07:10:12.935Z,57.80
2016-11-06T07:11:12.339Z,57.80
2016-11-06T07:12:13.218Z,57.70
2016-11-06T07:13:12.282Z,57.90
2016-11-06T07:14:10.803Z,is
2016-11-06T07:15:13.124Z,57.80
2016-11-06T07:16:18.448Z,57.90
2016-11-06T07:17:10.208Z,is
2016-11-06T07:18:12.037Z,57.80
2016-11-06T07:19:12.777Z,57.90
2016-11-06T07:20:10.354Z,is
2016-11-06T07:21:11.619Z,57.70
2016-11-06T07:22:13.077Z,57.70
2016-11-06T07:23:13.621Z,57.70
2016-11-06T07:24:11.657Z,57.40
2016-11-06T07:25:12.299Z,57.20
2016-11-06T07:26:13.028Z,57.20
2016-11-06T07:27:13.603Z,57.60
2016-11-06T07:28:12.334Z,57.00
2016-11-06T07:29:11.907Z,56.90
2016-11-06T07:30:10.349Z,is
2016-11-06T07:31:12.332Z,54.10
2016-11-06T07:32:12.716Z,54.60
2016-11-06T07:33:12.707Z,54.80
2016-11-06T07:34:11.974Z,48.70
2016-11-06T07:35:10.828Z,is
2016-11-06T07:36:12.508Z,41.80
2016-11-06T07:37:11.467Z,41.50
2016-11-06T07:38:13.243Z,41.70
2016-11-06T07:39:12.248Z,41.80
2016-11-06T07:40:12.690Z,43.30
2016-11-06T07:41:11.701Z,45.00
2016-11-06T07:42:10.672Z,is
2016-11-06T07:43:13.496Z,48.50
2016-11-06T07:44:11.927Z,48.70
2016-11-06T07:45:10.768Z,is
2016-11-06T07:46:12.440Z,49.30
2016-11-06T07:47:12.159Z,50.00
2016-11-06T07:48:12.218Z,50.00
2016-11-06T07:49:18.433Z,50.10
2016-11-06T07:50:12.328Z,50.10
2016-11-06T07:51:12.400Z,50.20
2016-11-06T07:52:12.859Z,50.50
2016-11-06T07:53:12.563Z,50.70
2016-11-06T07:54:12.316Z,50.70
2016-11-06T07:55:12.982Z,50.60
2016-11-06T07:56:10.837Z,is
2016-11-06T07:57:13.008Z,50.50
2016-11-06T07:58:11.982Z,50.50
2016-11-06T07:59:12.671Z,50.60
2016-11-06T08:00:13.336Z,50.60
2016-11-06T08:01:12.750Z,50.60
2016-11-06T08:02:10.632Z,is
2016-11-06T08:03:17.509Z,50.60
2016-11-06T08:04:11.634Z,50.60
2016-11-06T08:05:13.464Z,50.70
2016-11-06T08:06:13.844Z,50.70
2016-11-06T08:07:13.606Z,50.70
2016-11-06T08:08:10.379Z,is
2016-11-06T08:09:09.788Z,is
2016-11-06T08:10:13.593Z,50.70
2016-11-06T08:11:12.484Z,50.70
2016-11-06T08:12:11.510Z,50.70
2016-11-06T08:13:12.227Z,50.70
2016-11-06T08:14:12.146Z,50.60
2016-11-06T08:15:12.594Z,50.60
2016-11-06T08:16:13.189Z,50.80
2016-11-06T08:17:13.329Z,50.70
2016-11-06T08:18:12.426Z,50.70
2016-11-06T08:19:13.404Z,50.80
2016-11-06T08:20:11.511Z,50.70
2016-11-06T08:21:12.255Z,50.90
2016-11-06T08:22:12.384Z,50.80
2016-11-06T08:23:12.380Z,51.10
2016-11-06T08:24:12.334Z,51.10
2016-11-06T08:25:12.023Z,51.10
2016-11-06T08:26:12.098Z,51.10
2016-11-06T08:27:12.780Z,51.20
2016-11-06T08:28:17.487Z,51.20
2016-11-06T08:29:11.645Z,51.30
2016-11-06T08:30:11.828Z,51.30
2016-11-06T08:31:11.799Z,51.30
2016-11-06T08:32:12.821Z,51.40
2016-11-06T08:33:12.532Z,51.60
2016-11-06T08:34:12.231Z,51.60
2016-11-06T08:35:12.961Z,51.70
2016-11-06T08:36:11.973Z,51.60
2016-11-06T08:37:11.926Z,51.70
2016-11-06T08:38:13.599Z,51.70
2016-11-06T08:39:12.476Z,51.80
2016-11-06T08:40:11.533Z,51.70
2016-11-06T08:41:12.205Z,51.80
2016-11-06T08:42:12.747Z,51.80
2016-11-06T08:43:12.294Z,51.90
2016-11-06T08:44:15.841Z,51.70
2016-11-06T08:45:13.585Z,51.90
2016-11-06T08:46:12.050Z,51.90
2016-11-06T08:47:12.361Z,51.90
2016-11-06T08:48:12.880Z,52.10
2016-11-06T08:49:12.545Z,52.10
2016-11-06T08:50:17.834Z,52.00
2016-11-06T08:51:11.971Z,52.20
2016-11-06T08:52:12.577Z,52.20
2016-11-06T08:53:11.668Z,52.10
2016-11-06T08:54:14.334Z,52.00
2016-11-06T08:55:12.465Z,52.10
2016-11-06T08:56:11.545Z,52.10
2016-11-06T08:57:11.488Z,52.20
2016-11-06T08:58:12.286Z,52.20
2016-11-06T08:59:12.940Z,52.20
2016-11-06T09:00:12.288Z,52.20
2016-11-06T09:01:13.926Z,52.30
2016-11-06T09:02:12.677Z,52.30
2016-11-06T09:03:12.186Z,52.40
2016-11-06T09:04:15.967Z,52.40
2016-11-06T09:05:11.956Z,52.30
2016-11-06T09:06:12.091Z,52.40
2016-11-06T09:07:12.169Z,52.40
2016-11-06T09:08:12.738Z,52.50
2016-11-06T09:09:13.437Z,52.50
2016-11-06T09:10:11.693Z,52.40
2016-11-06T09:11:11.852Z,52.40
2016-11-06T09:12:17.983Z,52.50
2016-11-06T09:13:12.205Z,52.60
2016-11-06T09:14:12.677Z,52.60
2016-11-06T09:15:17.267Z,52.50
2016-11-06T09:16:12.245Z,52.50
2016-11-06T09:17:12.414Z,52.60
2016-11-06T09:18:12.226Z,52.70
2016-11-06T09:19:12.247Z,52.60
2016-11-06T09:20:12.878Z,52.70
2016-11-06T09:21:12.171Z,52.60
2016-11-06T09:22:12.076Z,52.60
2016-11-06T09:23:12.650Z,52.80
2016-11-06T09:24:12.157Z,52.70
2016-11-06T09:25:12.627Z,52.70
2016-11-06T09:26:12.075Z,52.70
2016-11-06T09:27:12.121Z,52.70
2016-11-06T09:28:12.578Z,52.80
2016-11-06T09:29:13.849Z,52.80
2016-11-06T09:30:11.799Z,52.70
2016-11-06T09:31:12.108Z,52.90
2016-11-06T09:32:12.725Z,53.00
2016-11-06T09:33:12.450Z,52.90
2016-11-06T09:34:12.016Z,52.80
2016-11-06T09:35:09.425Z,is
2016-11-06T09:36:18.206Z,53.00
2016-11-06T09:37:13.899Z,52.90
2016-11-06T09:38:12.143Z,52.90
2016-11-06T09:39:14.578Z,52.90
2016-11-06T09:40:11.491Z,52.90
2016-11-06T09:41:11.948Z,52.90
2016-11-06T09:42:12.482Z,52.90
2016-11-06T09:43:11.871Z,52.90
2016-11-06T09:44:11.928Z,53.00
2016-11-06T09:45:12.607Z,53.00
2016-11-06T09:46:13.201Z,53.00
2016-11-06T09:47:12.083Z,53.00
2016-11-06T09:48:12.648Z,52.90
2016-11-06T09:49:12.755Z,53.00
2016-11-06T09:50:12.747Z,53.10
2016-11-06T09:51:11.713Z,53.00
2016-11-06T09:52:12.448Z,53.20
2016-11-06T09:53:18.004Z,53.20
2016-11-06T09:54:12.172Z,53.10
2016-11-06T09:55:10.174Z,is
2016-11-06T09:56:13.468Z,53.20
2016-11-06T09:57:11.426Z,53.00
2016-11-06T09:58:12.092Z,53.10
2016-11-06T09:59:12.689Z,53.20
2016-11-06T10:00:12.274Z,53.20
2016-11-06T10:01:12.366Z,53.20
2016-11-06T10:02:12.259Z,53.20
2016-11-06T10:03:13.068Z,53.20
2016-11-06T10:04:12.597Z,53.20
2016-11-06T10:05:12.245Z,53.30
2016-11-06T10:06:12.282Z,53.20
2016-11-06T10:07:13.025Z,53.20
2016-11-06T10:08:13.571Z,53.30
2016-11-06T10:09:12.162Z,53.20
2016-11-06T10:10:11.876Z,53.20
2016-11-06T10:11:11.877Z,53.20
2016-11-06T10:12:11.997Z,53.30
2016-11-06T10:13:12.627Z,53.40
2016-11-06T10:14:12.120Z,53.20
2016-11-06T10:15:12.435Z,53.20
2016-11-06T10:16:11.439Z,53.30
2016-11-06T10:17:11.688Z,53.30
2016-11-06T10:18:12.367Z,53.40
2016-11-06T10:19:12.553Z,53.40
2016-11-06T10:20:12.269Z,53.40
2016-11-06T10:21:12.394Z,53.20
2016-11-06T10:22:11.661Z,53.40
2016-11-06T10:23:13.411Z,53.40
2016-11-06T10:24:11.339Z,53.20
2016-11-06T10:25:12.239Z,53.40
2016-11-06T10:26:12.800Z,53.30
2016-11-06T10:27:11.959Z,53.30
2016-11-06T10:28:12.183Z,53.30
2016-11-06T10:29:12.862Z,53.40
2016-11-06T10:30:13.530Z,53.40
2016-11-06T10:31:12.203Z,53.40
2016-11-06T10:32:12.349Z,53.40
2016-11-06T10:33:12.438Z,53.40
2016-11-06T10:34:11.545Z,53.40
2016-11-06T10:35:12.347Z,53.50
2016-11-06T10:36:12.340Z,53.40
2016-11-06T10:37:11.430Z,53.40
2016-11-06T10:38:09.561Z,is
2016-11-06T10:39:12.353Z,53.50
2016-11-06T10:40:12.459Z,53.40
2016-11-06T10:41:11.648Z,53.40
2016-11-06T10:42:12.309Z,53.50
2016-11-06T10:43:12.748Z,53.50
2016-11-06T10:44:12.223Z,53.30
2016-11-06T10:45:13.016Z,53.50
2016-11-06T10:46:12.049Z,53.60
2016-11-06T10:47:11.996Z,53.50
2016-11-06T10:48:17.494Z,53.50
2016-11-06T10:49:11.815Z,53.40
2016-11-06T10:50:12.790Z,53.60
2016-11-06T10:51:11.761Z,53.50
2016-11-06T10:52:12.719Z,53.50
2016-11-06T10:53:11.580Z,53.50
2016-11-06T10:54:12.369Z,53.70
2016-11-06T10:55:12.362Z,53.50
2016-11-06T10:56:10.013Z,is
2016-11-06T10:57:12.139Z,53.50
2016-11-06T10:58:12.637Z,53.70
2016-11-06T10:59:12.158Z,53.50
2016-11-06T11:00:12.585Z,53.60
2016-11-06T11:01:12.238Z,53.70
2016-11-06T11:02:13.711Z,53.60
2016-11-06T11:03:11.745Z,53.60
2016-11-06T11:04:11.935Z,53.60
2016-11-06T11:05:13.757Z,53.60
2016-11-06T11:06:13.614Z,53.60
2016-11-06T11:07:12.251Z,53.60
2016-11-06T11:08:12.754Z,53.70
2016-11-06T11:09:12.189Z,53.50
2016-11-06T11:10:12.923Z,53.70
2016-11-06T11:11:11.947Z,53.60
2016-11-06T11:12:11.973Z,53.60
2016-11-06T11:13:17.680Z,53.60
2016-11-06T11:14:11.749Z,53.60
2016-11-06T11:15:10.747Z,is
2016-11-06T11:16:12.265Z,53.70
2016-11-06T11:17:14.025Z,53.70
2016-11-06T11:18:12.359Z,53.70
2016-11-06T11:19:13.394Z,53.70
2016-11-06T11:20:11.485Z,53.60
2016-11-06T11:21:12.369Z,53.70
2016-11-06T11:22:12.195Z,53.60
2016-11-06T11:23:13.788Z,53.70
2016-11-06T11:24:10.654Z,is
2016-11-06T11:25:11.932Z,53.60
2016-11-06T11:26:12.025Z,53.60
2016-11-06T11:27:12.080Z,53.70
2016-11-06T11:28:12.506Z,53.60
2016-11-06T11:29:11.668Z,53.70
2016-11-06T11:30:12.436Z,53.70
2016-11-06T11:31:11.991Z,53.70
2016-11-06T11:32:10.947Z,is
2016-11-06T11:33:11.919Z,53.60
2016-11-06T11:34:12.086Z,53.70
2016-11-06T11:35:12.089Z,53.40
2016-11-06T11:36:12.590Z,53.20
2016-11-06T11:37:12.462Z,53.70
2016-11-06T11:38:11.446Z,53.60
2016-11-06T11:39:11.772Z,53.60
2016-11-06T11:40:12.494Z,53.60
2016-11-06T11:41:12.182Z,53.70
2016-11-06T11:42:12.954Z,53.80
2016-11-06T11:43:12.746Z,53.90
2016-11-06T11:44:11.847Z,53.90
2016-11-06T11:45:11.897Z,53.90
2016-11-06T11:46:11.886Z,54.00
2016-11-06T11:47:11.954Z,54.00
2016-11-06T11:48:13.204Z,54.10
2016-11-06T11:49:12.693Z,54.10
2016-11-06T11:50:11.903Z,54.20
2016-11-06T11:51:12.365Z,54.20
2016-11-06T11:52:12.208Z,54.30
2016-11-06T11:53:12.264Z,54.30
2016-11-06T11:54:09.559Z,is
2016-11-06T11:55:11.544Z,54.40
2016-11-06T11:56:17.195Z,54.40
2016-11-06T11:57:18.538Z,54.60
2016-11-06T11:58:12.086Z,54.50
2016-11-06T11:59:13.309Z,54.60
2016-11-06T12:00:14.690Z,54.60
2016-11-06T12:01:12.840Z,54.70
2016-11-06T12:02:13.600Z,54.70
2016-11-06T12:03:11.624Z,54.70
2016-11-06T12:04:12.404Z,54.70
2016-11-06T12:05:10.571Z,is
2016-11-06T12:06:11.679Z,54.70
2016-11-06T12:07:12.569Z,54.70
2016-11-06T12:08:11.582Z,54.70
2016-11-06T12:09:11.473Z,54.70
2016-11-06T12:10:12.023Z,54.70
2016-11-06T12:11:13.549Z,54.70
2016-11-06T12:12:11.746Z,54.90
2016-11-06T12:13:12.467Z,54.80
2016-11-06T12:14:12.367Z,54.90
2016-11-06T12:15:12.478Z,54.80
2016-11-06T12:16:13.633Z,54.90
2016-11-06T12:17:12.722Z,54.90
2016-11-06T12:18:12.542Z,55.00
2016-11-06T12:19:12.747Z,55.00
2016-11-06T12:20:13.745Z,55.10
2016-11-06T12:21:12.781Z,54.90
2016-11-06T12:22:14.577Z,55.10
2016-11-06T12:23:11.817Z,55.10
2016-11-06T12:24:18.343Z,55.20
2016-11-06T12:25:11.613Z,55.30
2016-11-06T12:26:12.236Z,55.20
2016-11-06T12:27:12.933Z,55.40
2016-11-06T12:28:11.952Z,55.70
2016-11-06T12:29:12.373Z,55.60
2016-11-06T12:30:17.851Z,55.80
2016-11-06T12:31:13.190Z,56.10
2016-11-06T12:32:12.109Z,56.20
2016-11-06T12:33:12.000Z,56.70
2016-11-06T12:34:13.530Z,56.80
2016-11-06T12:35:12.810Z,56.80
2016-11-06T12:36:10.655Z,is
2016-11-06T12:37:14.594Z,56.90
2016-11-06T12:38:12.283Z,56.80
2016-11-06T12:39:12.869Z,56.80
2016-11-06T12:40:13.176Z,56.10
2016-11-06T12:41:10.629Z,is
2016-11-06T12:42:12.720Z,57.90
2016-11-06T12:43:12.566Z,57.60
2016-11-06T12:44:12.489Z,57.30
2016-11-06T12:45:11.640Z,57.30
2016-11-06T12:46:11.705Z,57.20
2016-11-06T12:47:12.197Z,57.80
2016-11-06T12:48:10.229Z,is
2016-11-06T12:49:13.119Z,57.90
2016-11-06T12:50:12.220Z,58.00
2016-11-06T12:51:12.219Z,57.90
2016-11-06T12:52:12.986Z,58.30
2016-11-06T12:53:12.709Z,58.30
2016-11-06T12:54:11.824Z,58.20
2016-11-06T12:55:11.846Z,58.20
2016-11-06T12:56:12.634Z,58.20
2016-11-06T12:57:11.740Z,58.20
2016-11-06T12:58:11.664Z,58.30